sensor_id;sensor_type;location;lat;lon;timestamp;P1;durP1;ratioP1;P2;durP2;ratioP2
23565;SDS011;22140;48.988;8.544;2022-08-19T00:04:22;21.15;;;11.60;;
23565;SDS011;22140;48.988;8.544;2022-08-19T00:09:24;20.00;;;10.93;;
23565;SDS011;22140;48.988;8.544;2022-08-19T00:14:26;17.97;;;10.63;;
23565;SDS011;22140;48.988;8.544;2022-08-19T00:19:27;19.10;;;10.77;;
23565;SDS011;22140;48.988;8.544;2022-08-19T00:24:29;19.70;;;10.93;;
23565;SDS011;22140;48.988;8.544;2022-08-19T00:29:30;20.75;;;11.40;;
23565;SDS011;22140;48.988;8.544;2022-08-19T00:34:32;20.30;;;11.07;;
23565;SDS011;22140;48.988;8.544;2022-08-19T00:39:33;20.40;;;11.88;;
23565;SDS011;22140;48.988;8.544;2022-08-19T00:44:34;19.80;;;11.00;;
23565;SDS011;22140;48.988;8.544;2022-08-19T00:49:37;20.53;;;11.50;;
23565;SDS011;22140;48.988;8.544;2022-08-19T00:54:42;20.17;;;11.18;;
23565;SDS011;22140;48.988;8.544;2022-08-19T00:59:44;22.17;;;11.95;;
23565;SDS011;22140;48.988;8.544;2022-08-19T01:05:03;20.60;;;11.83;;
23565;SDS011;22140;48.988;8.544;2022-08-19T01:10:07;22.23;;;12.90;;
23565;SDS011;22140;48.988;8.544;2022-08-19T01:15:11;20.95;;;12.02;;
23565;SDS011;22140;48.988;8.544;2022-08-19T01:20:14;18.77;;;11.32;;
23565;SDS011;22140;48.988;8.544;2022-08-19T01:25:17;20.47;;;11.23;;
23565;SDS011;22140;48.988;8.544;2022-08-19T01:30:22;21.55;;;12.68;;
23565;SDS011;22140;48.988;8.544;2022-08-19T01:35:24;20.40;;;11.57;;
23565;SDS011;22140;48.988;8.544;2022-08-19T01:40:28;20.57;;;11.73;;
23565;SDS011;22140;48.988;8.544;2022-08-19T01:45:31;20.02;;;11.55;;
23565;SDS011;22140;48.988;8.544;2022-08-19T01:50:33;21.50;;;12.43;;
23565;SDS011;22140;48.988;8.544;2022-08-19T01:55:36;22.20;;;12.43;;
23565;SDS011;22140;48.988;8.544;2022-08-19T02:00:41;20.57;;;12.17;;
23565;SDS011;22140;48.988;8.544;2022-08-19T02:05:43;21.30;;;12.30;;
23565;SDS011;22140;48.988;8.544;2022-08-19T02:10:45;20.90;;;11.75;;
23565;SDS011;22140;48.988;8.544;2022-08-19T02:15:46;19.37;;;11.60;;
23565;SDS011;22140;48.988;8.544;2022-08-19T02:20:47;18.88;;;11.70;;
23565;SDS011;22140;48.988;8.544;2022-08-19T02:25:49;21.58;;;12.00;;
23565;SDS011;22140;48.988;8.544;2022-08-19T02:30:50;22.53;;;12.17;;
23565;SDS011;22140;48.988;8.544;2022-08-19T02:35:52;22.45;;;12.07;;
23565;SDS011;22140;48.988;8.544;2022-08-19T02:40:58;21.58;;;11.98;;
23565;SDS011;22140;48.988;8.544;2022-08-19T02:45:59;19.60;;;11.97;;
23565;SDS011;22140;48.988;8.544;2022-08-19T02:51:01;21.67;;;12.77;;
23565;SDS011;22140;48.988;8.544;2022-08-19T02:56:05;20.95;;;12.82;;
23565;SDS011;22140;48.988;8.544;2022-08-19T03:01:07;19.80;;;12.43;;
23565;SDS011;22140;48.988;8.544;2022-08-19T03:06:10;21.43;;;11.73;;
23565;SDS011;22140;48.988;8.544;2022-08-19T03:11:28;20.33;;;12.15;;
23565;SDS011;22140;48.988;8.544;2022-08-19T03:16:31;20.30;;;11.52;;
23565;SDS011;22140;48.988;8.544;2022-08-19T03:21:34;19.00;;;12.03;;
23565;SDS011;22140;48.988;8.544;2022-08-19T03:26:38;19.90;;;12.00;;
23565;SDS011;22140;48.988;8.544;2022-08-19T03:31:39;21.33;;;12.88;;
23565;SDS011;22140;48.988;8.544;2022-08-19T03:36:46;21.97;;;11.90;;
23565;SDS011;22140;48.988;8.544;2022-08-19T03:41:51;20.87;;;12.27;;
23565;SDS011;22140;48.988;8.544;2022-08-19T03:47:12;22.38;;;12.65;;
23565;SDS011;22140;48.988;8.544;2022-08-19T03:52:17;21.55;;;12.23;;
23565;SDS011;22140;48.988;8.544;2022-08-19T03:57:18;20.83;;;12.57;;
23565;SDS011;22140;48.988;8.544;2022-08-19T04:02:20;22.65;;;13.02;;
23565;SDS011;22140;48.988;8.544;2022-08-19T04:07:21;23.17;;;13.32;;
23565;SDS011;22140;48.988;8.544;2022-08-19T04:12:22;24.07;;;13.20;;
23565;SDS011;22140;48.988;8.544;2022-08-19T04:17:24;18.75;;;11.77;;
23565;SDS011;22140;48.988;8.544;2022-08-19T04:22:25;22.73;;;12.60;;
23565;SDS011;22140;48.988;8.544;2022-08-19T04:27:29;21.30;;;12.50;;
23565;SDS011;22140;48.988;8.544;2022-08-19T04:32:30;21.77;;;13.00;;
23565;SDS011;22140;48.988;8.544;2022-08-19T04:37:32;26.83;;;13.57;;
23565;SDS011;22140;48.988;8.544;2022-08-19T04:42:35;22.95;;;12.77;;
23565;SDS011;22140;48.988;8.544;2022-08-19T04:47:40;23.27;;;13.47;;
23565;SDS011;22140;48.988;8.544;2022-08-19T04:52:51;22.08;;;13.73;;
23565;SDS011;22140;48.988;8.544;2022-08-19T04:57:54;20.98;;;12.85;;
23565;SDS011;22140;48.988;8.544;2022-08-19T05:02:55;22.97;;;13.00;;
23565;SDS011;22140;48.988;8.544;2022-08-19T05:07:56;22.77;;;12.93;;
23565;SDS011;22140;48.988;8.544;2022-08-19T05:12:58;28.35;;;13.10;;
23565;SDS011;22140;48.988;8.544;2022-08-19T05:17:59;26.77;;;13.40;;
23565;SDS011;22140;48.988;8.544;2022-08-19T05:23:20;24.37;;;12.77;;
23565;SDS011;22140;48.988;8.544;2022-08-19T05:28:23;23.35;;;13.15;;
23565;SDS011;22140;48.988;8.544;2022-08-19T05:33:24;24.65;;;13.38;;
23565;SDS011;22140;48.988;8.544;2022-08-19T05:38:25;21.53;;;12.30;;
23565;SDS011;22140;48.988;8.544;2022-08-19T05:43:31;22.48;;;13.07;;
23565;SDS011;22140;48.988;8.544;2022-08-19T05:48:33;31.30;;;13.75;;
23565;SDS011;22140;48.988;8.544;2022-08-19T05:53:34;22.20;;;12.80;;
23565;SDS011;22140;48.988;8.544;2022-08-19T05:58:40;26.48;;;12.77;;
23565;SDS011;22140;48.988;8.544;2022-08-19T06:03:41;27.75;;;12.50;;
23565;SDS011;22140;48.988;8.544;2022-08-19T06:08:43;22.83;;;12.70;;
23565;SDS011;22140;48.988;8.544;2022-08-19T06:13:46;19.73;;;11.23;;
23565;SDS011;22140;48.988;8.544;2022-08-19T06:19:00;20.13;;;11.90;;
23565;SDS011;22140;48.988;8.544;2022-08-19T06:24:03;20.33;;;12.18;;
23565;SDS011;22140;48.988;8.544;2022-08-19T06:29:05;20.27;;;11.80;;
23565;SDS011;22140;48.988;8.544;2022-08-19T06:34:07;20.88;;;12.20;;
23565;SDS011;22140;48.988;8.544;2022-08-19T06:39:25;19.75;;;11.23;;
23565;SDS011;22140;48.988;8.544;2022-08-19T06:44:28;19.60;;;12.23;;
23565;SDS011;22140;48.988;8.544;2022-08-19T06:49:34;20.70;;;11.75;;
23565;SDS011;22140;48.988;8.544;2022-08-19T06:54:36;18.67;;;10.95;;
23565;SDS011;22140;48.988;8.544;2022-08-19T06:59:56;20.10;;;11.53;;
23565;SDS011;22140;48.988;8.544;2022-08-19T07:04:57;21.33;;;11.60;;
23565;SDS011;22140;48.988;8.544;2022-08-19T07:09:59;19.42;;;11.32;;
23565;SDS011;22140;48.988;8.544;2022-08-19T07:15:04;18.55;;;11.25;;
23565;SDS011;22140;48.988;8.544;2022-08-19T07:20:06;20.40;;;11.77;;
23565;SDS011;22140;48.988;8.544;2022-08-19T07:25:10;21.58;;;12.25;;
23565;SDS011;22140;48.988;8.544;2022-08-19T07:30:12;19.98;;;13.30;;
23565;SDS011;22140;48.988;8.544;2022-08-19T07:35:14;17.40;;;11.10;;
23565;SDS011;22140;48.988;8.544;2022-08-19T07:40:15;19.75;;;10.65;;
23565;SDS011;22140;48.988;8.544;2022-08-19T07:45:17;19.63;;;10.85;;
23565;SDS011;22140;48.988;8.544;2022-08-19T07:50:19;18.00;;;10.23;;
23565;SDS011;22140;48.988;8.544;2022-08-19T07:55:22;17.87;;;9.50;;
23565;SDS011;22140;48.988;8.544;2022-08-19T08:00:43;17.35;;;9.38;;
23565;SDS011;22140;48.988;8.544;2022-08-19T08:05:45;18.88;;;9.85;;
23565;SDS011;22140;48.988;8.544;2022-08-19T08:11:05;16.27;;;10.23;;
23565;SDS011;22140;48.988;8.544;2022-08-19T08:16:08;18.77;;;9.70;;
23565;SDS011;22140;48.988;8.544;2022-08-19T08:21:14;20.98;;;9.68;;
23565;SDS011;22140;48.988;8.544;2022-08-19T08:26:15;16.90;;;9.37;;
23565;SDS011;22140;48.988;8.544;2022-08-19T08:31:19;17.38;;;9.27;;
23565;SDS011;22140;48.988;8.544;2022-08-19T08:36:21;15.98;;;9.73;;
23565;SDS011;22140;48.988;8.544;2022-08-19T08:41:36;14.60;;;9.17;;
23565;SDS011;22140;48.988;8.544;2022-08-19T08:46:39;14.13;;;9.20;;
23565;SDS011;22140;48.988;8.544;2022-08-19T08:51:43;13.45;;;8.73;;
23565;SDS011;22140;48.988;8.544;2022-08-19T08:56:47;14.10;;;7.70;;
23565;SDS011;22140;48.988;8.544;2022-08-19T09:01:51;11.57;;;7.30;;
23565;SDS011;22140;48.988;8.544;2022-08-19T09:12:45;11.82;;;6.25;;
23565;SDS011;22140;48.988;8.544;2022-08-19T09:17:50;11.20;;;6.20;;
23565;SDS011;22140;48.988;8.544;2022-08-19T09:22:52;9.23;;;5.50;;
23565;SDS011;22140;48.988;8.544;2022-08-19T09:27:54;10.43;;;6.10;;
23565;SDS011;22140;48.988;8.544;2022-08-19T09:33:03;10.63;;;6.40;;
23565;SDS011;22140;48.988;8.544;2022-08-19T09:38:05;11.33;;;6.00;;
23565;SDS011;22140;48.988;8.544;2022-08-19T09:43:06;12.73;;;6.95;;
23565;SDS011;22140;48.988;8.544;2022-08-19T09:48:13;11.90;;;6.68;;
23565;SDS011;22140;48.988;8.544;2022-08-19T09:53:23;11.90;;;5.90;;
23565;SDS011;22140;48.988;8.544;2022-08-19T09:58:25;12.18;;;6.47;;
23565;SDS011;22140;48.988;8.544;2022-08-19T10:03:29;11.38;;;6.57;;
23565;SDS011;22140;48.988;8.544;2022-08-19T10:08:33;10.47;;;6.10;;
23565;SDS011;22140;48.988;8.544;2022-08-19T10:13:35;11.77;;;5.97;;
23565;SDS011;22140;48.988;8.544;2022-08-19T10:18:37;13.50;;;6.70;;
23565;SDS011;22140;48.988;8.544;2022-08-19T10:23:45;9.27;;;5.80;;
23565;SDS011;22140;48.988;8.544;2022-08-19T10:28:47;10.40;;;6.60;;
23565;SDS011;22140;48.988;8.544;2022-08-19T10:33:49;10.02;;;6.00;;
23565;SDS011;22140;48.988;8.544;2022-08-19T10:38:55;9.32;;;5.45;;
23565;SDS011;22140;48.988;8.544;2022-08-19T10:44:04;11.63;;;5.83;;
23565;SDS011;22140;48.988;8.544;2022-08-19T10:49:06;8.60;;;5.38;;
23565;SDS011;22140;48.988;8.544;2022-08-19T10:54:08;9.38;;;5.10;;
23565;SDS011;22140;48.988;8.544;2022-08-19T10:59:13;11.33;;;5.63;;
23565;SDS011;22140;48.988;8.544;2022-08-19T11:04:15;10.27;;;5.78;;
23565;SDS011;22140;48.988;8.544;2022-08-19T11:09:20;9.00;;;5.45;;
23565;SDS011;22140;48.988;8.544;2022-08-19T11:14:23;9.20;;;5.93;;
23565;SDS011;22140;48.988;8.544;2022-08-19T11:19:27;9.60;;;6.07;;
23565;SDS011;22140;48.988;8.544;2022-08-19T11:24:28;9.73;;;6.07;;
23565;SDS011;22140;48.988;8.544;2022-08-19T11:29:30;9.90;;;6.18;;
23565;SDS011;22140;48.988;8.544;2022-08-19T11:34:32;10.53;;;5.93;;
23565;SDS011;22140;48.988;8.544;2022-08-19T11:39:34;12.50;;;5.70;;
23565;SDS011;22140;48.988;8.544;2022-08-19T11:44:36;10.70;;;5.88;;
23565;SDS011;22140;48.988;8.544;2022-08-19T11:49:37;8.73;;;5.80;;
23565;SDS011;22140;48.988;8.544;2022-08-19T11:54:39;9.18;;;5.50;;
23565;SDS011;22140;48.988;8.544;2022-08-19T11:59:40;8.95;;;5.50;;
23565;SDS011;22140;48.988;8.544;2022-08-19T12:04:42;9.00;;;5.90;;
23565;SDS011;22140;48.988;8.544;2022-08-19T12:09:43;9.53;;;6.10;;
23565;SDS011;22140;48.988;8.544;2022-08-19T12:14:46;10.57;;;6.07;;
23565;SDS011;22140;48.988;8.544;2022-08-19T12:19:47;11.20;;;6.65;;
23565;SDS011;22140;48.988;8.544;2022-08-19T12:24:48;11.07;;;6.73;;
23565;SDS011;22140;48.988;8.544;2022-08-19T12:29:51;9.82;;;6.72;;
23565;SDS011;22140;48.988;8.544;2022-08-19T12:34:53;9.15;;;6.28;;
23565;SDS011;22140;48.988;8.544;2022-08-19T12:39:55;9.97;;;6.40;;
23565;SDS011;22140;48.988;8.544;2022-08-19T12:44:56;13.52;;;7.13;;
23565;SDS011;22140;48.988;8.544;2022-08-19T12:49:57;12.38;;;6.40;;
23565;SDS011;22140;48.988;8.544;2022-08-19T12:54:59;9.67;;;5.87;;
23565;SDS011;22140;48.988;8.544;2022-08-19T13:00:02;10.53;;;6.53;;
23565;SDS011;22140;48.988;8.544;2022-08-19T13:05:07;10.30;;;6.28;;
23565;SDS011;22140;48.988;8.544;2022-08-19T13:10:10;9.48;;;6.55;;
23565;SDS011;22140;48.988;8.544;2022-08-19T13:15:13;9.83;;;6.67;;
23565;SDS011;22140;48.988;8.544;2022-08-19T13:20:16;9.07;;;6.63;;
23565;SDS011;22140;48.988;8.544;2022-08-19T13:25:18;8.65;;;5.80;;
23565;SDS011;22140;48.988;8.544;2022-08-19T13:30:21;9.77;;;6.23;;
23565;SDS011;22140;48.988;8.544;2022-08-19T13:35:43;8.80;;;5.97;;
23565;SDS011;22140;48.988;8.544;2022-08-19T13:40:45;9.02;;;5.90;;
23565;SDS011;22140;48.988;8.544;2022-08-19T13:45:47;8.47;;;5.73;;
23565;SDS011;22140;48.988;8.544;2022-08-19T13:50:49;9.20;;;5.93;;
23565;SDS011;22140;48.988;8.544;2022-08-19T13:55:50;9.68;;;5.90;;
23565;SDS011;22140;48.988;8.544;2022-08-19T14:00:52;9.40;;;6.35;;
23565;SDS011;22140;48.988;8.544;2022-08-19T14:05:53;10.90;;;6.73;;
23565;SDS011;22140;48.988;8.544;2022-08-19T14:10:54;8.95;;;6.20;;
23565;SDS011;22140;48.988;8.544;2022-08-19T14:15:56;8.85;;;5.90;;
23565;SDS011;22140;48.988;8.544;2022-08-19T14:20:59;9.17;;;5.90;;
23565;SDS011;22140;48.988;8.544;2022-08-19T14:26:06;9.23;;;6.15;;
23565;SDS011;22140;48.988;8.544;2022-08-19T14:31:11;9.27;;;6.40;;
23565;SDS011;22140;48.988;8.544;2022-08-19T14:36:14;8.27;;;5.87;;
23565;SDS011;22140;48.988;8.544;2022-08-19T14:41:16;9.07;;;6.30;;
23565;SDS011;22140;48.988;8.544;2022-08-19T14:46:19;9.18;;;6.07;;
23565;SDS011;22140;48.988;8.544;2022-08-19T14:51:22;12.70;;;5.88;;
23565;SDS011;22140;48.988;8.544;2022-08-19T14:56:25;8.00;;;4.90;;
23565;SDS011;22140;48.988;8.544;2022-08-19T15:01:27;8.98;;;4.80;;
23565;SDS011;22140;48.988;8.544;2022-08-19T15:06:28;7.30;;;4.20;;
23565;SDS011;22140;48.988;8.544;2022-08-19T15:11:30;7.33;;;4.10;;
23565;SDS011;22140;48.988;8.544;2022-08-19T15:16:33;8.15;;;4.05;;
23565;SDS011;22140;48.988;8.544;2022-08-19T15:21:34;8.40;;;4.10;;
23565;SDS011;22140;48.988;8.544;2022-08-19T15:26:37;8.03;;;4.10;;
23565;SDS011;22140;48.988;8.544;2022-08-19T15:31:38;7.90;;;4.00;;
23565;SDS011;22140;48.988;8.544;2022-08-19T15:36:40;7.50;;;3.67;;
23565;SDS011;22140;48.988;8.544;2022-08-19T15:41:41;8.65;;;4.25;;
23565;SDS011;22140;48.988;8.544;2022-08-19T15:46:45;7.80;;;4.13;;
23565;SDS011;22140;48.988;8.544;2022-08-19T15:51:47;9.40;;;4.00;;
23565;SDS011;22140;48.988;8.544;2022-08-19T15:56:49;7.85;;;4.53;;
23565;SDS011;22140;48.988;8.544;2022-08-19T16:02:09;8.37;;;4.93;;
23565;SDS011;22140;48.988;8.544;2022-08-19T16:07:32;9.13;;;4.75;;
23565;SDS011;22140;48.988;8.544;2022-08-19T16:12:33;8.10;;;4.30;;
23565;SDS011;22140;48.988;8.544;2022-08-19T16:17:35;7.70;;;4.60;;
23565;SDS011;22140;48.988;8.544;2022-08-19T16:22:38;8.17;;;4.40;;
23565;SDS011;22140;48.988;8.544;2022-08-19T16:27:40;8.38;;;4.18;;
23565;SDS011;22140;48.988;8.544;2022-08-19T16:33:01;7.35;;;4.20;;
23565;SDS011;22140;48.988;8.544;2022-08-19T16:38:02;6.43;;;3.73;;
23565;SDS011;22140;48.988;8.544;2022-08-19T16:43:04;7.50;;;4.05;;
23565;SDS011;22140;48.988;8.544;2022-08-19T16:48:06;7.30;;;4.00;;
23565;SDS011;22140;48.988;8.544;2022-08-19T16:53:11;7.60;;;4.10;;
23565;SDS011;22140;48.988;8.544;2022-08-19T16:58:13;8.55;;;3.97;;
23565;SDS011;22140;48.988;8.544;2022-08-19T17:03:14;7.40;;;4.18;;
23565;SDS011;22140;48.988;8.544;2022-08-19T17:08:19;7.73;;;4.37;;
23565;SDS011;22140;48.988;8.544;2022-08-19T17:13:21;9.63;;;4.80;;
23565;SDS011;22140;48.988;8.544;2022-08-19T17:18:23;7.15;;;3.90;;
23565;SDS011;22140;48.988;8.544;2022-08-19T17:23:24;7.85;;;4.55;;
23565;SDS011;22140;48.988;8.544;2022-08-19T17:28:44;7.67;;;4.23;;
23565;SDS011;22140;48.988;8.544;2022-08-19T17:33:47;9.20;;;4.60;;
23565;SDS011;22140;48.988;8.544;2022-08-19T17:38:49;9.15;;;4.93;;
23565;SDS011;22140;48.988;8.544;2022-08-19T17:43:51;8.17;;;4.33;;
23565;SDS011;22140;48.988;8.544;2022-08-19T17:48:52;7.05;;;3.92;;
23565;SDS011;22140;48.988;8.544;2022-08-19T17:53:57;12.48;;;4.40;;
23565;SDS011;22140;48.988;8.544;2022-08-19T17:58:58;16.00;;;5.00;;
23565;SDS011;22140;48.988;8.544;2022-08-19T18:04:02;13.90;;;6.23;;
23565;SDS011;22140;48.988;8.544;2022-08-19T18:09:04;10.93;;;6.25;;
23565;SDS011;22140;48.988;8.544;2022-08-19T18:14:06;19.33;;;8.90;;
23565;SDS011;22140;48.988;8.544;2022-08-19T18:19:08;23.83;;;11.50;;
23565;SDS011;22140;48.988;8.544;2022-08-19T18:24:09;16.50;;;8.63;;
23565;SDS011;22140;48.988;8.544;2022-08-19T18:29:10;12.45;;;6.63;;
23565;SDS011;22140;48.988;8.544;2022-08-19T18:34:13;15.57;;;7.83;;
23565;SDS011;22140;48.988;8.544;2022-08-19T18:39:15;11.63;;;6.57;;
23565;SDS011;22140;48.988;8.544;2022-08-19T18:44:38;15.20;;;7.25;;
23565;SDS011;22140;48.988;8.544;2022-08-19T18:50:14;13.23;;;7.07;;
23565;SDS011;22140;48.988;8.544;2022-08-19T18:55:18;12.60;;;6.73;;
23565;SDS011;22140;48.988;8.544;2022-08-19T19:00:20;11.50;;;7.15;;
23565;SDS011;22140;48.988;8.544;2022-08-19T19:05:21;12.93;;;7.10;;
23565;SDS011;22140;48.988;8.544;2022-08-19T19:10:24;12.70;;;7.40;;
23565;SDS011;22140;48.988;8.544;2022-08-19T19:15:25;14.73;;;7.55;;
23565;SDS011;22140;48.988;8.544;2022-08-19T19:20:29;12.43;;;6.78;;
23565;SDS011;22140;48.988;8.544;2022-08-19T19:25:36;12.80;;;7.27;;
23565;SDS011;22140;48.988;8.544;2022-08-19T19:30:51;13.20;;;7.07;;
23565;SDS011;22140;48.988;8.544;2022-08-19T19:35:53;15.95;;;7.50;;
23565;SDS011;22140;48.988;8.544;2022-08-19T19:40:54;13.60;;;6.90;;
23565;SDS011;22140;48.988;8.544;2022-08-19T19:45:56;11.53;;;6.53;;
23565;SDS011;22140;48.988;8.544;2022-08-19T19:50:57;13.75;;;6.07;;
23565;SDS011;22140;48.988;8.544;2022-08-19T19:56:02;10.85;;;5.40;;
23565;SDS011;22140;48.988;8.544;2022-08-19T20:01:04;11.30;;;5.40;;
23565;SDS011;22140;48.988;8.544;2022-08-19T20:06:10;9.52;;;5.18;;
23565;SDS011;22140;48.988;8.544;2022-08-19T20:11:12;8.73;;;4.13;;
23565;SDS011;22140;48.988;8.544;2022-08-19T20:16:17;10.70;;;3.30;;
23565;SDS011;22140;48.988;8.544;2022-08-19T20:21:19;6.95;;;3.38;;
23565;SDS011;22140;48.988;8.544;2022-08-19T20:26:21;7.57;;;3.20;;
23565;SDS011;22140;48.988;8.544;2022-08-19T20:31:34;7.17;;;2.57;;
23565;SDS011;22140;48.988;8.544;2022-08-19T20:36:55;6.77;;;2.80;;
23565;SDS011;22140;48.988;8.544;2022-08-19T20:41:57;6.00;;;2.20;;
23565;SDS011;22140;48.988;8.544;2022-08-19T20:46:58;6.85;;;2.65;;
23565;SDS011;22140;48.988;8.544;2022-08-19T20:52:04;5.97;;;2.17;;
23565;SDS011;22140;48.988;8.544;2022-08-19T20:57:05;6.90;;;2.20;;
23565;SDS011;22140;48.988;8.544;2022-08-19T21:02:07;6.43;;;1.80;;
23565;SDS011;22140;48.988;8.544;2022-08-19T21:07:08;7.37;;;1.80;;
23565;SDS011;22140;48.988;8.544;2022-08-19T21:12:10;7.07;;;1.92;;
23565;SDS011;22140;48.988;8.544;2022-08-19T21:17:12;5.80;;;1.80;;
23565;SDS011;22140;48.988;8.544;2022-08-19T21:22:14;5.33;;;1.60;;
23565;SDS011;22140;48.988;8.544;2022-08-19T21:27:15;5.97;;;1.50;;
23565;SDS011;22140;48.988;8.544;2022-08-19T21:32:17;5.45;;;1.60;;
23565;SDS011;22140;48.988;8.544;2022-08-19T21:37:19;4.88;;;1.50;;
23565;SDS011;22140;48.988;8.544;2022-08-19T21:42:26;4.00;;;1.30;;
23565;SDS011;22140;48.988;8.544;2022-08-19T21:47:27;4.13;;;1.30;;
23565;SDS011;22140;48.988;8.544;2022-08-19T21:52:28;3.88;;;1.17;;
23565;SDS011;22140;48.988;8.544;2022-08-19T21:57:30;5.20;;;1.33;;
23565;SDS011;22140;48.988;8.544;2022-08-19T22:02:31;4.28;;;1.20;;
23565;SDS011;22140;48.988;8.544;2022-08-19T22:07:32;4.50;;;1.10;;
23565;SDS011;22140;48.988;8.544;2022-08-19T22:12:34;5.17;;;1.20;;
23565;SDS011;22140;48.988;8.544;2022-08-19T22:17:37;4.00;;;1.20;;
23565;SDS011;22140;48.988;8.544;2022-08-19T22:22:49;4.45;;;1.10;;
23565;SDS011;22140;48.988;8.544;2022-08-19T22:27:51;5.25;;;1.10;;
23565;SDS011;22140;48.988;8.544;2022-08-19T22:32:57;4.00;;;1.07;;
23565;SDS011;22140;48.988;8.544;2022-08-19T22:38:02;3.67;;;1.10;;
23565;SDS011;22140;48.988;8.544;2022-08-19T22:43:10;4.38;;;1.00;;
23565;SDS011;22140;48.988;8.544;2022-08-19T22:48:13;5.30;;;1.10;;
23565;SDS011;22140;48.988;8.544;2022-08-19T22:53:15;4.25;;;1.10;;
23565;SDS011;22140;48.988;8.544;2022-08-19T22:58:16;5.05;;;0.93;;
23565;SDS011;22140;48.988;8.544;2022-08-19T23:03:28;3.80;;;0.97;;
23565;SDS011;22140;48.988;8.544;2022-08-19T23:08:29;4.97;;;1.10;;
23565;SDS011;22140;48.988;8.544;2022-08-19T23:13:31;4.30;;;1.13;;
23565;SDS011;22140;48.988;8.544;2022-08-19T23:18:33;4.50;;;1.10;;
23565;SDS011;22140;48.988;8.544;2022-08-19T23:23:34;4.17;;;1.10;;
23565;SDS011;22140;48.988;8.544;2022-08-19T23:28:39;3.60;;;0.98;;
23565;SDS011;22140;48.988;8.544;2022-08-19T23:33:59;3.80;;;1.10;;
23565;SDS011;22140;48.988;8.544;2022-08-19T23:39:00;3.60;;;1.07;;
23565;SDS011;22140;48.988;8.544;2022-08-19T23:44:01;5.28;;;1.20;;
23565;SDS011;22140;48.988;8.544;2022-08-19T23:49:04;6.15;;;1.20;;
23565;SDS011;22140;48.988;8.544;2022-08-19T23:54:06;5.20;;;1.10;;
23565;SDS011;22140;48.988;8.544;2022-08-19T23:59:07;4.13;;;1.33;;
